sensor_id;sensor_type;location;lat;lon;timestamp;temperature;humidity
1025;DHT22;501;48.214;11.350;2023-03-20T00:01:27;10.10;68.50
1025;DHT22;501;48.214;11.350;2023-03-20T00:03:52;10.10;68.60
1025;DHT22;501;48.214;11.350;2023-03-20T00:06:24;10.10;68.20
1025;DHT22;501;48.214;11.350;2023-03-20T00:08:51;10.10;67.90
1025;DHT22;501;48.214;11.350;2023-03-20T00:13:58;10.10;68.30
1025;DHT22;501;48.214;11.350;2023-03-20T00:16:33;10.10;68.80
1025;DHT22;501;48.214;11.350;2023-03-20T00:18:59;10.00;68.50
1025;DHT22;501;48.214;11.350;2023-03-20T00:21:25;10.00;69.40
1025;DHT22;501;48.214;11.350;2023-03-20T00:23:50;10.00;69.70
1025;DHT22;501;48.214;11.350;2023-03-20T00:26:17;10.00;70.00
1025;DHT22;501;48.214;11.350;2023-03-20T00:28:45;9.90;71.10
1025;DHT22;501;48.214;11.350;2023-03-20T00:31:35;9.90;70.70
1025;DHT22;501;48.214;11.350;2023-03-20T00:34:04;9.80;71.20
1025;DHT22;501;48.214;11.350;2023-03-20T00:36:31;9.80;71.00
1025;DHT22;501;48.214;11.350;2023-03-20T00:38:57;9.80;70.90
1025;DHT22;501;48.214;11.350;2023-03-20T00:41:32;9.80;70.80
1025;DHT22;501;48.214;11.350;2023-03-20T00:44:47;9.80;71.10
1025;DHT22;501;48.214;11.350;2023-03-20T00:47:19;9.80;71.20
1025;DHT22;501;48.214;11.350;2023-03-20T00:49:47;9.80;70.70
1025;DHT22;501;48.214;11.350;2023-03-20T00:52:16;9.80;70.90
1025;DHT22;501;48.214;11.350;2023-03-20T00:54:42;9.70;70.90
1025;DHT22;501;48.214;11.350;2023-03-20T00:57:33;9.70;70.50
1025;DHT22;501;48.214;11.350;2023-03-20T01:00:05;9.70;70.80
1025;DHT22;501;48.214;11.350;2023-03-20T01:02:32;9.70;70.80
1025;DHT22;501;48.214;11.350;2023-03-20T01:04:58;9.70;70.20
1025;DHT22;501;48.214;11.350;2023-03-20T01:07:24;9.60;71.40
1025;DHT22;501;48.214;11.350;2023-03-20T01:09:50;9.60;71.50
1025;DHT22;501;48.214;11.350;2023-03-20T01:12:17;9.70;72.00
1025;DHT22;501;48.214;11.350;2023-03-20T01:14:43;9.60;71.50
1025;DHT22;501;48.214;11.350;2023-03-20T01:17:18;9.60;71.60
1025;DHT22;501;48.214;11.350;2023-03-20T01:19:44;9.70;71.30
1025;DHT22;501;48.214;11.350;2023-03-20T01:22:10;9.60;71.80
1025;DHT22;501;48.214;11.350;2023-03-20T01:24:38;9.60;71.20
1025;DHT22;501;48.214;11.350;2023-03-20T01:27:08;9.60;71.60
1025;DHT22;501;48.214;11.350;2023-03-20T01:29:36;9.60;71.70
1025;DHT22;501;48.214;11.350;2023-03-20T01:32:02;9.60;71.60
1025;DHT22;501;48.214;11.350;2023-03-20T01:34:28;9.60;71.10
1025;DHT22;501;48.214;11.350;2023-03-20T01:36:56;9.60;70.10
1025;DHT22;501;48.214;11.350;2023-03-20T01:39:29;9.70;70.50
1025;DHT22;501;48.214;11.350;2023-03-20T01:41:55;9.70;70.00
1025;DHT22;501;48.214;11.350;2023-03-20T01:46:48;9.70;69.40
1025;DHT22;501;48.214;11.350;2023-03-20T01:51:47;9.70;69.00
1025;DHT22;501;48.214;11.350;2023-03-20T01:54:26;9.60;68.60
1025;DHT22;501;48.214;11.350;2023-03-20T01:59:46;9.70;68.70
1025;DHT22;501;48.214;11.350;2023-03-20T02:02:13;9.60;68.50
1025;DHT22;501;48.214;11.350;2023-03-20T02:04:44;9.70;68.60
1025;DHT22;501;48.214;11.350;2023-03-20T02:07:12;9.70;68.60
1025;DHT22;501;48.214;11.350;2023-03-20T02:09:40;9.70;68.50
1025;DHT22;501;48.214;11.350;2023-03-20T02:12:07;9.70;67.80
1025;DHT22;501;48.214;11.350;2023-03-20T02:14:33;9.70;67.40
1025;DHT22;501;48.214;11.350;2023-03-20T02:17:02;9.70;66.90
1025;DHT22;501;48.214;11.350;2023-03-20T02:23:29;9.70;66.70
1025;DHT22;501;48.214;11.350;2023-03-20T02:35:06;9.70;66.80
1025;DHT22;501;48.214;11.350;2023-03-20T02:43:17;9.70;66.70
1025;DHT22;501;48.214;11.350;2023-03-20T02:45:53;9.70;66.70
1025;DHT22;501;48.214;11.350;2023-03-20T02:48:43;9.70;66.10
1025;DHT22;501;48.214;11.350;2023-03-20T02:51:18;9.70;65.80
1025;DHT22;501;48.214;11.350;2023-03-20T02:53:58;9.70;65.40
1025;DHT22;501;48.214;11.350;2023-03-20T02:59:31;9.70;65.50
1025;DHT22;501;48.214;11.350;2023-03-20T03:02:04;9.70;65.00
1025;DHT22;501;48.214;11.350;2023-03-20T03:04:35;9.70;64.40
1025;DHT22;501;48.214;11.350;2023-03-20T03:07:02;9.70;64.10
1025;DHT22;501;48.214;11.350;2023-03-20T03:09:34;9.70;64.10
1025;DHT22;501;48.214;11.350;2023-03-20T03:12:18;9.70;63.70
1025;DHT22;501;48.214;11.350;2023-03-20T03:14:58;9.70;63.40
1025;DHT22;501;48.214;11.350;2023-03-20T03:17:26;9.70;63.50
1025;DHT22;501;48.214;11.350;2023-03-20T03:19:56;9.70;63.40
1025;DHT22;501;48.214;11.350;2023-03-20T03:22:23;9.70;62.50
1025;DHT22;501;48.214;11.350;2023-03-20T03:24:53;9.70;63.10
1025;DHT22;501;48.214;11.350;2023-03-20T03:27:40;9.70;63.40
1025;DHT22;501;48.214;11.350;2023-03-20T03:30:12;9.70;62.60
1025;DHT22;501;48.214;11.350;2023-03-20T03:32:49;9.70;62.10
1025;DHT22;501;48.214;11.350;2023-03-20T03:35:19;9.60;62.80
1025;DHT22;501;48.214;11.350;2023-03-20T03:37:56;9.70;62.30
1025;DHT22;501;48.214;11.350;2023-03-20T03:40:44;9.60;62.20
1025;DHT22;501;48.214;11.350;2023-03-20T03:43:16;9.60;62.30
1025;DHT22;501;48.214;11.350;2023-03-20T03:45:51;9.60;61.80
1025;DHT22;501;48.214;11.350;2023-03-20T03:48:23;9.70;61.80
1025;DHT22;501;48.214;11.350;2023-03-20T03:50:53;9.70;60.80
1025;DHT22;501;48.214;11.350;2023-03-20T03:53:28;9.70;60.80
1025;DHT22;501;48.214;11.350;2023-03-20T03:55:59;9.70;61.30
1025;DHT22;501;48.214;11.350;2023-03-20T03:58:32;9.70;61.20
1025;DHT22;501;48.214;11.350;2023-03-20T04:01:02;9.70;61.60
1025;DHT22;501;48.214;11.350;2023-03-20T04:03:32;9.60;61.10
1025;DHT22;501;48.214;11.350;2023-03-20T04:06:02;9.60;61.90
1025;DHT22;501;48.214;11.350;2023-03-20T04:08:28;9.60;61.40
1025;DHT22;501;48.214;11.350;2023-03-20T04:10:53;9.50;60.50
1025;DHT22;501;48.214;11.350;2023-03-20T04:13:22;9.50;61.60
1025;DHT22;501;48.214;11.350;2023-03-20T04:15:47;9.40;61.50
1025;DHT22;501;48.214;11.350;2023-03-20T04:18:17;9.40;62.20
1025;DHT22;501;48.214;11.350;2023-03-20T04:20:44;9.40;62.10
1025;DHT22;501;48.214;11.350;2023-03-20T04:23:10;9.30;61.70
1025;DHT22;501;48.214;11.350;2023-03-20T04:25:36;9.30;61.90
1025;DHT22;501;48.214;11.350;2023-03-20T04:28:02;9.30;62.30
1025;DHT22;501;48.214;11.350;2023-03-20T04:30:28;9.30;62.40
1025;DHT22;501;48.214;11.350;2023-03-20T04:32:53;9.30;62.40
1025;DHT22;501;48.214;11.350;2023-03-20T04:35:19;9.20;62.00
1025;DHT22;501;48.214;11.350;2023-03-20T04:37:44;9.20;62.70
1025;DHT22;501;48.214;11.350;2023-03-20T04:40:11;9.20;62.50
1025;DHT22;501;48.214;11.350;2023-03-20T04:42:37;9.10;62.90
1025;DHT22;501;48.214;11.350;2023-03-20T04:45:03;9.20;63.50
1025;DHT22;501;48.214;11.350;2023-03-20T04:47:30;9.20;63.20
1025;DHT22;501;48.214;11.350;2023-03-20T04:49:55;9.20;63.50
1025;DHT22;501;48.214;11.350;2023-03-20T04:52:21;9.20;63.40
1025;DHT22;501;48.214;11.350;2023-03-20T04:54:46;9.20;63.90
1025;DHT22;501;48.214;11.350;2023-03-20T04:57:12;9.10;64.40
1025;DHT22;501;48.214;11.350;2023-03-20T04:59:38;9.10;63.80
1025;DHT22;501;48.214;11.350;2023-03-20T05:02:03;9.10;62.90
1025;DHT22;501;48.214;11.350;2023-03-20T05:04:29;9.00;63.70
1025;DHT22;501;48.214;11.350;2023-03-20T05:09:23;9.00;63.80
1025;DHT22;501;48.214;11.350;2023-03-20T05:11:48;8.90;64.50
1025;DHT22;501;48.214;11.350;2023-03-20T05:14:14;8.80;64.80
1025;DHT22;501;48.214;11.350;2023-03-20T05:16:39;8.80;65.90
1025;DHT22;501;48.214;11.350;2023-03-20T05:19:05;8.80;65.90
1025;DHT22;501;48.214;11.350;2023-03-20T05:21:31;8.80;66.00
1025;DHT22;501;48.214;11.350;2023-03-20T05:24:02;8.80;66.00
1025;DHT22;501;48.214;11.350;2023-03-20T05:26:28;8.80;65.90
1025;DHT22;501;48.214;11.350;2023-03-20T05:28:54;8.70;66.00
1025;DHT22;501;48.214;11.350;2023-03-20T05:31:19;8.70;65.80
1025;DHT22;501;48.214;11.350;2023-03-20T05:33:45;8.70;65.80
1025;DHT22;501;48.214;11.350;2023-03-20T05:36:11;8.70;65.80
1025;DHT22;501;48.214;11.350;2023-03-20T05:38:36;8.60;65.80
1025;DHT22;501;48.214;11.350;2023-03-20T05:41:03;8.60;66.30
1025;DHT22;501;48.214;11.350;2023-03-20T05:43:28;8.60;66.70
1025;DHT22;501;48.214;11.350;2023-03-20T05:45:55;8.50;66.50
1025;DHT22;501;48.214;11.350;2023-03-20T05:48:21;8.50;67.20
1025;DHT22;501;48.214;11.350;2023-03-20T05:50:47;8.50;67.30
1025;DHT22;501;48.214;11.350;2023-03-20T05:53:13;8.50;68.50
1025;DHT22;501;48.214;11.350;2023-03-20T05:55:39;8.50;67.60
1025;DHT22;501;48.214;11.350;2023-03-20T05:58:05;8.50;68.20
1025;DHT22;501;48.214;11.350;2023-03-20T06:00:31;8.50;68.90
1025;DHT22;501;48.214;11.350;2023-03-20T06:02:57;8.40;68.20
1025;DHT22;501;48.214;11.350;2023-03-20T06:05:22;8.40;68.50
1025;DHT22;501;48.214;11.350;2023-03-20T06:07:48;8.40;68.80
1025;DHT22;501;48.214;11.350;2023-03-20T06:10:13;8.40;69.80
1025;DHT22;501;48.214;11.350;2023-03-20T06:12:39;8.40;67.80
1025;DHT22;501;48.214;11.350;2023-03-20T06:15:05;8.50;69.40
1025;DHT22;501;48.214;11.350;2023-03-20T06:17:31;8.50;69.40
1025;DHT22;501;48.214;11.350;2023-03-20T06:19:57;8.50;69.10
1025;DHT22;501;48.214;11.350;2023-03-20T06:22:22;8.50;68.90
1025;DHT22;501;48.214;11.350;2023-03-20T06:24:48;8.50;68.20
1025;DHT22;501;48.214;11.350;2023-03-20T06:27:13;8.50;68.30
1025;DHT22;501;48.214;11.350;2023-03-20T06:29:40;8.50;67.30
1025;DHT22;501;48.214;11.350;2023-03-20T06:32:06;8.50;66.70
1025;DHT22;501;48.214;11.350;2023-03-20T06:34:33;8.50;66.80
1025;DHT22;501;48.214;11.350;2023-03-20T06:36:58;8.60;67.30
1025;DHT22;501;48.214;11.350;2023-03-20T06:39:24;8.60;67.00
1025;DHT22;501;48.214;11.350;2023-03-20T06:41:50;8.60;67.00
1025;DHT22;501;48.214;11.350;2023-03-20T06:44:15;8.70;67.30
1025;DHT22;501;48.214;11.350;2023-03-20T06:46:41;8.70;65.80
1025;DHT22;501;48.214;11.350;2023-03-20T06:49:06;8.80;65.90
1025;DHT22;501;48.214;11.350;2023-03-20T06:51:32;8.80;65.90
1025;DHT22;501;48.214;11.350;2023-03-20T06:53:58;8.80;65.10
1025;DHT22;501;48.214;11.350;2023-03-20T06:56:23;8.90;65.50
1025;DHT22;501;48.214;11.350;2023-03-20T06:58:49;8.90;64.40
1025;DHT22;501;48.214;11.350;2023-03-20T07:01:16;9.00;64.30
1025;DHT22;501;48.214;11.350;2023-03-20T07:03:44;9.00;63.40
1025;DHT22;501;48.214;11.350;2023-03-20T07:06:09;9.00;63.30
1025;DHT22;501;48.214;11.350;2023-03-20T07:08:39;9.00;64.60
1025;DHT22;501;48.214;11.350;2023-03-20T07:11:05;9.00;65.50
1025;DHT22;501;48.214;11.350;2023-03-20T07:13:31;9.10;66.10
1025;DHT22;501;48.214;11.350;2023-03-20T07:15:59;9.20;65.00
1025;DHT22;501;48.214;11.350;2023-03-20T07:18:25;9.30;64.10
1025;DHT22;501;48.214;11.350;2023-03-20T07:20:52;9.30;63.50
1025;DHT22;501;48.214;11.350;2023-03-20T07:23:18;9.40;63.40
1025;DHT22;501;48.214;11.350;2023-03-20T07:25:44;9.50;63.30
1025;DHT22;501;48.214;11.350;2023-03-20T07:28:11;9.50;62.00
1025;DHT22;501;48.214;11.350;2023-03-20T07:30:37;9.60;62.50
1025;DHT22;501;48.214;11.350;2023-03-20T07:33:02;9.70;61.30
1025;DHT22;501;48.214;11.350;2023-03-20T07:35:28;9.70;61.50
1025;DHT22;501;48.214;11.350;2023-03-20T07:37:53;9.70;60.20
1025;DHT22;501;48.214;11.350;2023-03-20T07:40:19;9.80;60.00
1025;DHT22;501;48.214;11.350;2023-03-20T07:42:45;9.80;59.50
1025;DHT22;501;48.214;11.350;2023-03-20T07:45:12;9.80;59.00
1025;DHT22;501;48.214;11.350;2023-03-20T07:47:38;9.90;59.50
1025;DHT22;501;48.214;11.350;2023-03-20T07:50:04;9.90;58.90
1025;DHT22;501;48.214;11.350;2023-03-20T07:52:30;9.90;58.40
1025;DHT22;501;48.214;11.350;2023-03-20T07:54:56;9.90;57.60
1025;DHT22;501;48.214;11.350;2023-03-20T07:57:21;10.00;55.40
1025;DHT22;501;48.214;11.350;2023-03-20T07:59:47;9.90;57.70
1025;DHT22;501;48.214;11.350;2023-03-20T08:02:16;10.00;57.50
1025;DHT22;501;48.214;11.350;2023-03-20T08:04:43;10.00;55.90
1025;DHT22;501;48.214;11.350;2023-03-20T08:07:09;10.10;55.00
1025;DHT22;501;48.214;11.350;2023-03-20T08:09:36;10.10;54.30
1025;DHT22;501;48.214;11.350;2023-03-20T08:12:01;10.10;53.50
1025;DHT22;501;48.214;11.350;2023-03-20T08:14:30;10.10;53.50
1025;DHT22;501;48.214;11.350;2023-03-20T08:16:56;10.10;53.30
1025;DHT22;501;48.214;11.350;2023-03-20T08:19:22;10.10;54.20
1025;DHT22;501;48.214;11.350;2023-03-20T08:21:48;10.00;54.10
1025;DHT22;501;48.214;11.350;2023-03-20T08:24:14;10.10;54.00
1025;DHT22;501;48.214;11.350;2023-03-20T08:26:40;10.20;55.60
1025;DHT22;501;48.214;11.350;2023-03-20T08:29:05;10.20;55.10
1025;DHT22;501;48.214;11.350;2023-03-20T08:31:31;10.30;53.60
1025;DHT22;501;48.214;11.350;2023-03-20T08:33:57;10.40;54.70
1025;DHT22;501;48.214;11.350;2023-03-20T08:36:23;10.60;53.20
1025;DHT22;501;48.214;11.350;2023-03-20T08:38:49;10.60;52.40
1025;DHT22;501;48.214;11.350;2023-03-20T08:41:16;10.70;54.00
1025;DHT22;501;48.214;11.350;2023-03-20T08:43:42;10.90;50.60
1025;DHT22;501;48.214;11.350;2023-03-20T08:46:08;11.00;49.90
1025;DHT22;501;48.214;11.350;2023-03-20T08:48:34;11.10;48.60
1025;DHT22;501;48.214;11.350;2023-03-20T08:51:00;11.10;48.60
1025;DHT22;501;48.214;11.350;2023-03-20T08:53:26;11.10;48.50
1025;DHT22;501;48.214;11.350;2023-03-20T08:55:52;11.20;50.10
1025;DHT22;501;48.214;11.350;2023-03-20T08:58:21;11.30;47.60
1025;DHT22;501;48.214;11.350;2023-03-20T09:00:47;11.30;47.40
1025;DHT22;501;48.214;11.350;2023-03-20T09:03:14;11.30;46.50
1025;DHT22;501;48.214;11.350;2023-03-20T09:05:44;11.30;45.10
1025;DHT22;501;48.214;11.350;2023-03-20T09:08:11;11.40;45.30
1025;DHT22;501;48.214;11.350;2023-03-20T09:10:37;11.40;44.80
1025;DHT22;501;48.214;11.350;2023-03-20T09:13:02;11.50;46.30
1025;DHT22;501;48.214;11.350;2023-03-20T09:15:28;11.60;47.40
1025;DHT22;501;48.214;11.350;2023-03-20T09:17:54;11.70;45.30
1025;DHT22;501;48.214;11.350;2023-03-20T09:20:20;11.80;44.60
1025;DHT22;501;48.214;11.350;2023-03-20T09:22:45;11.90;45.90
1025;DHT22;501;48.214;11.350;2023-03-20T09:25:12;12.00;43.70
1025;DHT22;501;48.214;11.350;2023-03-20T09:27:38;12.00;44.40
1025;DHT22;501;48.214;11.350;2023-03-20T09:30:07;12.10;42.60
1025;DHT22;501;48.214;11.350;2023-03-20T09:32:34;12.10;41.50
1025;DHT22;501;48.214;11.350;2023-03-20T09:35:01;12.10;42.10
1025;DHT22;501;48.214;11.350;2023-03-20T09:37:27;12.20;42.50
1025;DHT22;501;48.214;11.350;2023-03-20T09:39:53;12.20;41.30
1025;DHT22;501;48.214;11.350;2023-03-20T09:42:50;12.20;40.70
1025;DHT22;501;48.214;11.350;2023-03-20T09:48:09;12.00;41.20
1025;DHT22;501;48.214;11.350;2023-03-20T09:51:01;11.90;42.60
1025;DHT22;501;48.214;11.350;2023-03-20T09:53:31;11.90;42.30
1025;DHT22;501;48.214;11.350;2023-03-20T09:55:59;11.90;42.30
1025;DHT22;501;48.214;11.350;2023-03-20T09:58:25;11.90;42.60
1025;DHT22;501;48.214;11.350;2023-03-20T10:00:57;11.90;43.00
1025;DHT22;501;48.214;11.350;2023-03-20T10:03:41;12.00;43.10
1025;DHT22;501;48.214;11.350;2023-03-20T10:06:13;12.10;42.70
1025;DHT22;501;48.214;11.350;2023-03-20T10:08:39;12.20;42.20
1025;DHT22;501;48.214;11.350;2023-03-20T10:16:44;12.40;39.60
1025;DHT22;501;48.214;11.350;2023-03-20T10:19:22;12.40;39.70
1025;DHT22;501;48.214;11.350;2023-03-20T10:22:09;12.40;40.10
1025;DHT22;501;48.214;11.350;2023-03-20T10:24:41;12.50;40.40
1025;DHT22;501;48.214;11.350;2023-03-20T10:29:52;12.70;39.00
1025;DHT22;501;48.214;11.350;2023-03-20T10:35:18;12.80;38.40
1025;DHT22;501;48.214;11.350;2023-03-20T10:37:58;12.90;38.30
1025;DHT22;501;48.214;11.350;2023-03-20T10:40:31;12.90;35.70
1025;DHT22;501;48.214;11.350;2023-03-20T10:43:02;13.00;36.70
1025;DHT22;501;48.214;11.350;2023-03-20T10:48:32;12.90;37.40
1025;DHT22;501;48.214;11.350;2023-03-20T10:51:00;12.80;36.60
1025;DHT22;501;48.214;11.350;2023-03-20T10:53:52;12.80;36.10
1025;DHT22;501;48.214;11.350;2023-03-20T10:56:35;12.80;36.70
1025;DHT22;501;48.214;11.350;2023-03-20T10:59:24;12.80;37.20
1025;DHT22;501;48.214;11.350;2023-03-20T11:01:50;12.80;36.70
1025;DHT22;501;48.214;11.350;2023-03-20T11:04:15;12.80;35.30
1025;DHT22;501;48.214;11.350;2023-03-20T11:09:36;12.70;33.50
1025;DHT22;501;48.214;11.350;2023-03-20T11:12:03;12.80;35.40
1025;DHT22;501;48.214;11.350;2023-03-20T11:14:38;12.80;33.60
1025;DHT22;501;48.214;11.350;2023-03-20T11:17:05;12.80;34.00
1025;DHT22;501;48.214;11.350;2023-03-20T11:19:33;12.90;34.00
1025;DHT22;501;48.214;11.350;2023-03-20T11:22:06;13.00;34.70
1025;DHT22;501;48.214;11.350;2023-03-20T11:24:43;13.00;36.10
1025;DHT22;501;48.214;11.350;2023-03-20T11:27:15;13.10;35.50
1025;DHT22;501;48.214;11.350;2023-03-20T11:29:42;13.20;34.00
1025;DHT22;501;48.214;11.350;2023-03-20T11:37:53;13.60;33.50
1025;DHT22;501;48.214;11.350;2023-03-20T11:40:24;13.70;34.40
1025;DHT22;501;48.214;11.350;2023-03-20T11:42:56;13.80;32.40
1025;DHT22;501;48.214;11.350;2023-03-20T11:45:22;13.90;32.90
1025;DHT22;501;48.214;11.350;2023-03-20T11:47:52;13.90;32.60
1025;DHT22;501;48.214;11.350;2023-03-20T11:52:54;13.90;35.00
1025;DHT22;501;48.214;11.350;2023-03-20T11:57:49;13.70;33.20
1025;DHT22;501;48.214;11.350;2023-03-20T12:00:16;13.70;35.00
1025;DHT22;501;48.214;11.350;2023-03-20T12:02:42;13.60;33.50
1025;DHT22;501;48.214;11.350;2023-03-20T12:05:33;13.50;34.20
1025;DHT22;501;48.214;11.350;2023-03-20T12:08:16;13.50;34.20
1025;DHT22;501;48.214;11.350;2023-03-20T12:10:50;13.40;34.10
1025;DHT22;501;48.214;11.350;2023-03-20T12:13:23;13.40;34.10
1025;DHT22;501;48.214;11.350;2023-03-20T12:15:58;13.30;33.50
1025;DHT22;501;48.214;11.350;2023-03-20T12:18:34;13.20;33.80
1025;DHT22;501;48.214;11.350;2023-03-20T12:21:09;13.10;33.90
1025;DHT22;501;48.214;11.350;2023-03-20T12:23:58;13.10;33.90
1025;DHT22;501;48.214;11.350;2023-03-20T12:28:59;13.20;34.00
1025;DHT22;501;48.214;11.350;2023-03-20T12:31:41;13.20;34.50
1025;DHT22;501;48.214;11.350;2023-03-20T12:34:23;13.20;34.00
1025;DHT22;501;48.214;11.350;2023-03-20T12:36:51;13.30;34.10
1025;DHT22;501;48.214;11.350;2023-03-20T12:39:23;13.30;35.20
1025;DHT22;501;48.214;11.350;2023-03-20T12:47:38;13.30;33.00
1025;DHT22;501;48.214;11.350;2023-03-20T12:50:35;13.20;32.80
1025;DHT22;501;48.214;11.350;2023-03-20T13:01:18;13.10;33.90
1025;DHT22;501;48.214;11.350;2023-03-20T13:09:35;13.10;33.90
1025;DHT22;501;48.214;11.350;2023-03-20T13:17:50;13.40;32.90
1025;DHT22;501;48.214;11.350;2023-03-20T13:20:31;13.40;32.30
1025;DHT22;501;48.214;11.350;2023-03-20T13:29:02;13.60;31.60
1025;DHT22;501;48.214;11.350;2023-03-20T13:32:31;13.70;30.70
1025;DHT22;501;48.214;11.350;2023-03-20T13:37:36;14.10;30.50
1025;DHT22;501;48.214;11.350;2023-03-20T13:42:56;15.00;30.60
1025;DHT22;501;48.214;11.350;2023-03-20T13:45:33;15.30;29.10
1025;DHT22;501;48.214;11.350;2023-03-20T13:50:41;15.80;29.40
1025;DHT22;501;48.214;11.350;2023-03-20T13:53:27;16.40;28.10
1025;DHT22;501;48.214;11.350;2023-03-20T13:56:06;17.00;29.10
1025;DHT22;501;48.214;11.350;2023-03-20T13:58:47;17.50;25.40
1025;DHT22;501;48.214;11.350;2023-03-20T14:03:47;17.60;24.30
1025;DHT22;501;48.214;11.350;2023-03-20T14:08:53;17.50;26.30
1025;DHT22;501;48.214;11.350;2023-03-20T14:14:11;17.30;24.50
1025;DHT22;501;48.214;11.350;2023-03-20T14:16:37;17.00;25.30
1025;DHT22;501;48.214;11.350;2023-03-20T14:19:23;16.60;25.80
1025;DHT22;501;48.214;11.350;2023-03-20T14:21:52;16.30;25.70
1025;DHT22;501;48.214;11.350;2023-03-20T14:24:19;16.10;26.00
1025;DHT22;501;48.214;11.350;2023-03-20T14:26:51;16.00;26.10
1025;DHT22;501;48.214;11.350;2023-03-20T14:29:30;16.00;26.60
1025;DHT22;501;48.214;11.350;2023-03-20T14:40:13;15.80;27.70
1025;DHT22;501;48.214;11.350;2023-03-20T14:42:56;16.00;27.50
1025;DHT22;501;48.214;11.350;2023-03-20T14:45:43;16.40;27.00
1025;DHT22;501;48.214;11.350;2023-03-20T14:53:30;17.40;24.00
1025;DHT22;501;48.214;11.350;2023-03-20T14:56:21;17.40;23.70
1025;DHT22;501;48.214;11.350;2023-03-20T14:59:00;17.50;24.40
1025;DHT22;501;48.214;11.350;2023-03-20T15:01:39;17.90;23.50
1025;DHT22;501;48.214;11.350;2023-03-20T15:04:29;18.10;22.90
1025;DHT22;501;48.214;11.350;2023-03-20T15:07:16;18.40;22.90
1025;DHT22;501;48.214;11.350;2023-03-20T15:09:48;18.90;22.50
1025;DHT22;501;48.214;11.350;2023-03-20T15:12:24;19.30;21.40
1025;DHT22;501;48.214;11.350;2023-03-20T15:17:26;20.20;20.60
1025;DHT22;501;48.214;11.350;2023-03-20T15:20:11;20.40;20.90
1025;DHT22;501;48.214;11.350;2023-03-20T15:22:53;20.20;20.60
1025;DHT22;501;48.214;11.350;2023-03-20T15:25:22;20.20;20.40
1025;DHT22;501;48.214;11.350;2023-03-20T15:27:48;20.30;20.80
1025;DHT22;501;48.214;11.350;2023-03-20T15:30:19;20.40;20.10
1025;DHT22;501;48.214;11.350;2023-03-20T15:32:47;19.70;20.50
1025;DHT22;501;48.214;11.350;2023-03-20T15:35:16;19.20;21.10
1025;DHT22;501;48.214;11.350;2023-03-20T15:37:45;18.30;22.00
1025;DHT22;501;48.214;11.350;2023-03-20T15:40:20;17.80;22.90
1025;DHT22;501;48.214;11.350;2023-03-20T15:42:55;17.40;23.90
1025;DHT22;501;48.214;11.350;2023-03-20T15:45:29;17.00;23.80
1025;DHT22;501;48.214;11.350;2023-03-20T15:48:06;16.60;24.00
1025;DHT22;501;48.214;11.350;2023-03-20T15:50:35;16.20;25.40
1025;DHT22;501;48.214;11.350;2023-03-20T15:53:06;15.80;25.10
1025;DHT22;501;48.214;11.350;2023-03-20T15:55:35;15.30;26.10
1025;DHT22;501;48.214;11.350;2023-03-20T15:58:02;15.00;26.40
1025;DHT22;501;48.214;11.350;2023-03-20T16:00:48;14.90;27.10
1025;DHT22;501;48.214;11.350;2023-03-20T16:03:16;14.70;26.90
1025;DHT22;501;48.214;11.350;2023-03-20T16:05:45;14.60;26.90
1025;DHT22;501;48.214;11.350;2023-03-20T16:08:21;14.40;27.60
1025;DHT22;501;48.214;11.350;2023-03-20T16:10:47;14.30;27.70
1025;DHT22;501;48.214;11.350;2023-03-20T16:13:14;14.20;27.60
1025;DHT22;501;48.214;11.350;2023-03-20T16:15:43;14.10;28.20
1025;DHT22;501;48.214;11.350;2023-03-20T16:18:13;14.10;28.70
1025;DHT22;501;48.214;11.350;2023-03-20T16:20:51;14.10;28.30
1025;DHT22;501;48.214;11.350;2023-03-20T16:23:26;14.10;28.70
1025;DHT22;501;48.214;11.350;2023-03-20T16:25:57;14.10;28.60
1025;DHT22;501;48.214;11.350;2023-03-20T16:28:25;14.10;28.60
1025;DHT22;501;48.214;11.350;2023-03-20T16:30:52;14.00;28.80
1025;DHT22;501;48.214;11.350;2023-03-20T16:33:19;14.10;28.60
1025;DHT22;501;48.214;11.350;2023-03-20T16:35:47;13.90;28.60
1025;DHT22;501;48.214;11.350;2023-03-20T16:38:31;13.80;29.70
1025;DHT22;501;48.214;11.350;2023-03-20T16:44:04;13.80;29.20
1025;DHT22;501;48.214;11.350;2023-03-20T16:46:30;13.70;29.90
1025;DHT22;501;48.214;11.350;2023-03-20T16:48:57;13.70;29.50
1025;DHT22;501;48.214;11.350;2023-03-20T16:51:30;13.70;29.60
1025;DHT22;501;48.214;11.350;2023-03-20T16:53:58;13.60;29.80
1025;DHT22;501;48.214;11.350;2023-03-20T16:56:33;13.60;30.00
1025;DHT22;501;48.214;11.350;2023-03-20T16:59:07;13.50;29.80
1025;DHT22;501;48.214;11.350;2023-03-20T17:01:33;13.40;30.20
1025;DHT22;501;48.214;11.350;2023-03-20T17:06:57;13.20;30.90
1025;DHT22;501;48.214;11.350;2023-03-20T17:09:28;13.10;31.50
1025;DHT22;501;48.214;11.350;2023-03-20T17:12:09;13.10;31.50
1025;DHT22;501;48.214;11.350;2023-03-20T17:14:36;13.00;31.50
1025;DHT22;501;48.214;11.350;2023-03-20T17:17:02;12.90;31.60
1025;DHT22;501;48.214;11.350;2023-03-20T17:19:31;12.80;31.90
1025;DHT22;501;48.214;11.350;2023-03-20T17:21:57;12.70;32.20
1025;DHT22;501;48.214;11.350;2023-03-20T17:24:27;12.60;32.30
1025;DHT22;501;48.214;11.350;2023-03-20T17:26:54;12.50;32.20
1025;DHT22;501;48.214;11.350;2023-03-20T17:29:22;12.50;32.80
1025;DHT22;501;48.214;11.350;2023-03-20T17:31:48;12.50;33.30
1025;DHT22;501;48.214;11.350;2023-03-20T17:34:13;12.40;33.20
1025;DHT22;501;48.214;11.350;2023-03-20T17:36:39;12.40;33.20
1025;DHT22;501;48.214;11.350;2023-03-20T17:39:05;12.30;33.20
1025;DHT22;501;48.214;11.350;2023-03-20T17:41:31;12.30;33.20
1025;DHT22;501;48.214;11.350;2023-03-20T17:43:57;12.20;33.10
1025;DHT22;501;48.214;11.350;2023-03-20T17:46:26;12.20;33.60
1025;DHT22;501;48.214;11.350;2023-03-20T17:49:00;12.10;33.30
1025;DHT22;501;48.214;11.350;2023-03-20T17:51:26;12.00;33.50
1025;DHT22;501;48.214;11.350;2023-03-20T17:53:51;12.00;34.00
1025;DHT22;501;48.214;11.350;2023-03-20T17:56:23;11.90;33.90
1025;DHT22;501;48.214;11.350;2023-03-20T17:58:49;11.90;34.00
1025;DHT22;501;48.214;11.350;2023-03-20T18:01:16;11.80;34.20
1025;DHT22;501;48.214;11.350;2023-03-20T18:03:41;11.80;34.50
1025;DHT22;501;48.214;11.350;2023-03-20T18:06:22;11.80;34.40
1025;DHT22;501;48.214;11.350;2023-03-20T18:08:48;11.70;34.30
1025;DHT22;501;48.214;11.350;2023-03-20T18:11:13;11.60;34.30
1025;DHT22;501;48.214;11.350;2023-03-20T18:13:39;11.60;34.40
1025;DHT22;501;48.214;11.350;2023-03-20T18:16:05;11.60;34.80
1025;DHT22;501;48.214;11.350;2023-03-20T18:18:30;11.50;34.80
1025;DHT22;501;48.214;11.350;2023-03-20T18:20:56;11.40;35.10
1025;DHT22;501;48.214;11.350;2023-03-20T18:23:23;11.40;35.30
1025;DHT22;501;48.214;11.350;2023-03-20T18:25:49;11.30;35.30
1025;DHT22;501;48.214;11.350;2023-03-20T18:28:16;11.20;35.50
1025;DHT22;501;48.214;11.350;2023-03-20T18:30:47;11.20;35.60
1025;DHT22;501;48.214;11.350;2023-03-20T18:33:13;11.10;35.70
1025;DHT22;501;48.214;11.350;2023-03-20T18:35:39;11.10;36.10
1025;DHT22;501;48.214;11.350;2023-03-20T18:38:05;11.00;36.30
1025;DHT22;501;48.214;11.350;2023-03-20T18:40:35;10.90;36.40
1025;DHT22;501;48.214;11.350;2023-03-20T18:43:01;10.90;36.60
1025;DHT22;501;48.214;11.350;2023-03-20T18:45:28;10.80;36.60